Time;durP1;ratioP1;P1;durP2;ratioP2;P2;SDS_P1;SDS_P2;PMS_P1;PMS_P2;Temp;Humidity;BMP_temperature;BMP_pressure;BME280_temperature;BME280_humidity;BME280_pressure;Samples;Min_cycle;Max_cycle;Signal;HPM_P1;HPM_P2
2021/04/09 00:00:06;;;;;;;21.65;13.20;;;4.80;99.90;;;;;;5001354;28;20118;-83
2021/04/09 00:02:34;;;;;;;24.08;13.27;;;4.80;99.90;;;;;;5020895;28;20072;-83
2021/04/09 00:05:05;;;;;;;23.67;13.57;;;4.70;99.90;;;;;;5004012;28;20026;-83
2021/04/09 00:07:31;;;;;;;27.33;13.75;;;4.70;99.90;;;;;;5017526;28;20145;-83
2021/04/09 00:09:59;;;;;;;19.73;12.35;;;4.70;99.90;;;;;;5007820;28;20101;-83
2021/04/09 00:12:25;;;;;;;20.77;11.52;;;4.80;99.90;;;;;;5002072;28;20041;-84
2021/04/09 00:14:52;;;;;;;22.13;12.95;;;4.80;99.90;;;;;;5015019;28;20498;-84
2021/04/09 00:17:18;;;;;;;26.05;13.73;;;4.80;99.90;;;;;;5000434;28;20077;-84
2021/04/09 00:19:44;;;;;;;23.02;13.13;;;4.80;99.90;;;;;;5005920;28;20049;-84
2021/04/09 00:22:11;;;;;;;35.58;13.60;;;4.80;99.90;;;;;;5006240;28;20042;-84
2021/04/09 00:24:37;;;;;;;21.60;13.27;;;4.80;99.90;;;;;;5021686;28;20137;-83
2021/04/09 00:27:05;;;;;;;22.55;12.57;;;4.80;99.90;;;;;;5006516;28;20516;-83
2021/04/09 00:29:31;;;;;;;22.10;12.18;;;4.80;99.90;;;;;;5005269;28;20068;-83
2021/04/09 00:31:57;;;;;;;24.63;13.93;;;4.80;99.90;;;;;;5006335;28;20573;-83
2021/04/09 00:34:23;;;;;;;28.88;13.20;;;4.80;99.90;;;;;;5010254;28;20096;-82
2021/04/09 00:36:50;;;;;;;22.95;12.77;;;4.80;99.90;;;;;;5007555;28;20050;-83
2021/04/09 00:39:16;;;;;;;24.63;13.20;;;4.90;99.90;;;;;;5005723;28;20141;-83
2021/04/09 00:41:42;;;;;;;17.15;12.40;;;4.90;99.90;;;;;;5003968;28;20065;-83
2021/04/09 00:44:11;;;;;;;30.90;13.45;;;4.90;99.90;;;;;;5002828;28;20113;-83
2021/04/09 00:46:38;;;;;;;22.27;13.65;;;4.90;99.90;;;;;;5022012;28;20076;-83
2021/04/09 00:49:06;;;;;;;31.20;14.30;;;4.90;99.90;;;;;;5001343;28;20093;-83
2021/04/09 00:51:33;;;;;;;22.88;12.52;;;5.00;99.90;;;;;;5009310;28;20046;-83
2021/04/09 00:54:01;;;;;;;25.05;14.02;;;5.00;99.90;;;;;;5004975;28;20062;-84
2021/04/09 00:56:29;;;;;;;26.85;12.30;;;5.10;99.90;;;;;;5004408;28;20751;-83
2021/04/09 00:58:57;;;;;;;24.52;13.80;;;5.10;99.90;;;;;;5004722;28;20128;-83
2021/04/09 01:01:24;;;;;;;21.05;12.63;;;5.10;99.90;;;;;;5024216;28;20050;-83
2021/04/09 01:03:52;;;;;;;18.92;12.10;;;5.20;99.90;;;;;;5001556;28;20074;-83
2021/04/09 01:06:19;;;;;;;28.52;14.23;;;5.20;99.90;;;;;;5022328;28;20076;-83
2021/04/09 01:08:47;;;;;;;25.63;12.95;;;5.20;99.90;;;;;;5000792;28;20141;-83
2021/04/09 01:11:13;;;;;;;25.33;12.85;;;5.20;99.90;;;;;;5000582;28;20108;-83
2021/04/09 01:13:40;;;;;;;25.88;13.73;;;5.20;99.90;;;;;;5005047;28;20046;-83
2021/04/09 01:16:12;;;;;;;22.92;13.52;;;5.30;99.90;;;;;;5002905;28;20106;-83
2021/04/09 01:18:44;;;;;;;20.65;12.90;;;5.20;99.90;;;;;;5006723;28;20053;-83
2021/04/09 01:21:14;;;;;;;32.20;14.05;;;5.30;99.90;;;;;;5004077;28;20106;-83
2021/04/09 01:23:43;;;;;;;19.38;13.00;;;5.30;99.90;;;;;;5021071;28;20053;-83
2021/04/09 01:26:37;;;;;;;20.77;12.38;;;5.30;99.90;;;;;;5020681;28;20080;-83
2021/04/09 01:29:31;;;;;;;25.45;12.93;;;5.30;99.90;;;;;;5023377;28;20046;-84
2021/04/09 01:31:58;;;;;;;;;;;5.30;99.90;;;;;;5007927;28;20042;-83
2021/04/09 01:34:35;;;;;;;20.45;12.77;;;5.30;99.90;;;;;;5004719;28;19932;-82
2021/04/09 01:37:09;;;;;;;27.15;13.90;;;5.30;99.90;;;;;;5009814;28;20172;-82
2021/04/09 01:39:39;;;;;;;24.02;13.70;;;5.30;99.90;;;;;;4998612;28;20136;-82
2021/04/09 01:42:10;;;;;;;22.90;12.60;;;5.30;99.90;;;;;;5005827;28;20058;-84
2021/04/09 01:44:41;;;;;;;26.75;13.40;;;5.30;99.90;;;;;;5023083;28;20527;-83
2021/04/09 01:47:09;;;;;;;25.45;12.75;;;5.30;99.90;;;;;;5020621;28;20074;-82
2021/04/09 01:49:37;;;;;;;23.15;11.80;;;5.30;99.90;;;;;;5002049;28;20065;-82
2021/04/09 01:52:07;;;;;;;23.27;13.50;;;5.30;99.90;;;;;;5005835;28;20061;-83
2021/04/09 01:54:35;;;;;;;24.70;13.40;;;5.30;99.90;;;;;;5005516;28;20472;-84
2021/04/09 01:57:02;;;;;;;24.48;14.38;;;5.30;99.90;;;;;;5004931;28;20843;-83
2021/04/09 01:59:32;;;;;;;24.60;13.32;;;5.30;99.90;;;;;;5009071;28;20451;-83
2021/04/09 02:01:59;;;;;;;24.00;13.65;;;5.30;99.90;;;;;;5008058;28;20077;-83
2021/04/09 02:04:27;;;;;;;17.55;11.85;;;5.30;99.90;;;;;;5009952;28;20061;-83
2021/04/09 02:06:55;;;;;;;23.67;14.23;;;5.30;99.90;;;;;;5020257;28;20103;-83
2021/04/09 02:09:23;;;;;;;22.30;12.85;;;5.30;99.90;;;;;;5006662;28;20061;-85
2021/04/09 02:11:51;;;;;;;26.60;13.02;;;5.30;99.90;;;;;;5009128;28;20113;-83
2021/04/09 02:14:20;;;;;;;26.17;13.32;;;5.30;99.90;;;;;;5006216;28;20477;-85
2021/04/09 02:16:46;;;;;;;21.20;12.38;;;5.30;99.90;;;;;;5003092;28;20119;-84
2021/04/09 02:19:13;;;;;;;20.30;12.93;;;5.40;99.90;;;;;;5021376;28;20076;-83
2021/04/09 02:21:40;;;;;;;22.80;12.75;;;5.40;99.90;;;;;;5023691;28;20057;-83
2021/04/09 02:24:07;;;;;;;32.22;14.40;;;5.40;99.90;;;;;;5002706;28;20046;-82
2021/04/09 02:26:35;;;;;;;20.92;11.80;;;5.40;99.90;;;;;;5021310;28;20121;-83
2021/04/09 02:29:02;;;;;;;24.55;13.80;;;5.40;99.90;;;;;;5020015;28;20077;-83
2021/04/09 02:31:29;;;;;;;19.85;12.35;;;5.40;99.90;;;;;;5006845;28;20115;-82
2021/04/09 02:33:55;;;;;;;23.38;12.60;;;5.40;99.90;;;;;;5004295;28;20080;-82
2021/04/09 02:36:25;;;;;;;26.45;13.32;;;5.40;99.90;;;;;;5003211;28;20053;-83
2021/04/09 02:39:03;;;;;;;22.52;12.75;;;5.50;99.90;;;;;;5003954;28;20050;-82
2021/04/09 02:41:35;;;;;;;20.33;12.75;;;5.40;99.90;;;;;;4998716;28;20115;-83
2021/04/09 02:44:02;;;;;;;19.30;12.27;;;5.50;99.90;;;;;;5017479;28;20064;-83
2021/04/09 02:46:43;;;;;;;24.88;13.63;;;5.50;99.90;;;;;;5024069;28;21114;-82
2021/04/09 02:49:14;;;;;;;23.20;12.70;;;5.50;99.90;;;;;;5022374;28;20267;-83
2021/04/09 02:51:47;;;;;;;18.40;12.07;;;5.50;99.90;;;;;;5005640;28;20056;-83
2021/04/09 02:54:16;;;;;;;22.53;12.20;;;5.50;99.90;;;;;;5000294;28;20114;-83
2021/04/09 02:56:42;;;;;;;24.83;13.52;;;5.50;99.90;;;;;;4998346;28;20050;-83
2021/04/09 02:59:12;;;;;;;22.48;12.38;;;5.50;99.90;;;;;;5019283;28;20088;-83
2021/04/09 03:01:43;;;;;;;19.48;12.02;;;5.50;99.90;;;;;;5002937;28;20131;-83
2021/04/09 03:04:11;;;;;;;23.55;11.90;;;5.60;99.90;;;;;;5004797;28;20539;-84
2021/04/09 03:06:41;;;;;;;20.83;12.35;;;5.60;99.90;;;;;;5023744;28;20133;-83
2021/04/09 03:09:08;;;;;;;20.50;13.00;;;5.60;99.90;;;;;;5002521;28;20165;-83
2021/04/09 03:11:35;;;;;;;20.08;11.48;;;5.60;99.90;;;;;;5001088;28;20437;-83
2021/04/09 03:14:03;;;;;;;19.42;11.70;;;5.60;99.90;;;;;;5002781;28;20231;-83
2021/04/09 03:16:39;;;;;;;19.15;11.82;;;5.60;99.90;;;;;;5004319;28;20048;-84
2021/04/09 03:19:06;;;;;;;20.98;10.93;;;5.70;99.90;;;;;;5004101;28;20056;-83
2021/04/09 03:21:32;;;;;;;18.30;12.00;;;5.60;99.90;;;;;;5008537;28;21591;-84
2021/04/09 03:23:59;;;;;;;20.58;11.98;;;5.70;99.90;;;;;;5002206;28;20054;-84
2021/04/09 03:26:25;;;;;;;20.00;11.45;;;5.70;99.90;;;;;;5013778;28;25310;-84
2021/04/09 03:28:51;;;;;;;17.77;10.65;;;5.70;99.90;;;;;;4983489;28;20141;-83
2021/04/09 03:31:18;;;;;;;22.30;12.35;;;5.70;99.90;;;;;;5003353;28;20096;-83
2021/04/09 03:33:44;;;;;;;16.02;10.50;;;5.80;99.90;;;;;;5008479;28;20077;-84
2021/04/09 03:36:10;;;;;;;18.70;11.73;;;5.70;99.90;;;;;;5001694;28;20137;-84
2021/04/09 03:38:36;;;;;;;20.70;12.10;;;5.70;99.90;;;;;;5000279;28;20156;-84
2021/04/09 03:41:03;;;;;;;22.88;13.15;;;5.70;99.90;;;;;;5010327;28;20046;-84
2021/04/09 03:43:29;;;;;;;20.83;12.07;;;5.70;99.90;;;;;;4998080;28;20476;-83
2021/04/09 03:45:55;;;;;;;23.02;11.70;;;5.70;99.90;;;;;;5003320;28;20049;-83
2021/04/09 03:48:22;;;;;;;22.70;12.50;;;5.70;99.90;;;;;;5006021;28;20054;-83
2021/04/09 03:50:48;;;;;;;20.75;12.23;;;5.70;99.90;;;;;;5016465;28;20124;-83
2021/04/09 03:53:15;;;;;;;23.13;12.85;;;5.70;99.90;;;;;;5017582;28;20485;-85
2021/04/09 03:55:41;;;;;;;21.63;12.30;;;5.70;99.90;;;;;;5001446;28;20054;-84
2021/04/09 03:58:08;;;;;;;21.13;12.40;;;5.70;99.90;;;;;;5001224;28;20056;-84
2021/04/09 04:00:34;;;;;;;21.80;12.05;;;5.70;99.90;;;;;;5006206;28;20080;-83
2021/04/09 04:03:01;;;;;;;21.50;11.45;;;5.70;99.90;;;;;;5006134;28;20559;-83
2021/04/09 04:05:27;;;;;;;18.27;11.52;;;5.70;99.90;;;;;;5005753;28;20100;-83
2021/04/09 04:07:53;;;;;;;20.42;11.45;;;5.70;99.90;;;;;;5006496;28;20064;-83
2021/04/09 04:10:20;;;;;;;20.95;11.57;;;5.70;99.90;;;;;;5021059;28;20477;-83
2021/04/09 04:12:46;;;;;;;19.42;11.25;;;5.70;99.90;;;;;;5007709;28;20097;-83
2021/04/09 04:15:12;;;;;;;21.75;11.02;;;5.60;99.90;;;;;;5020925;28;20379;-84
2021/04/09 04:17:39;;;;;;;22.73;13.00;;;5.70;99.90;;;;;;5008877;28;21042;-84
2021/04/09 04:20:06;;;;;;;21.30;11.90;;;5.60;99.90;;;;;;4995410;28;20050;-83
2021/04/09 04:22:32;;;;;;;24.13;13.50;;;5.60;99.90;;;;;;5016269;28;20152;-83
2021/04/09 04:24:58;;;;;;;27.75;11.80;;;5.60;99.90;;;;;;5005815;28;20054;-84
2021/04/09 04:27:25;;;;;;;20.65;11.60;;;5.50;99.90;;;;;;5006303;28;20170;-84
2021/04/09 04:29:51;;;;;;;21.25;11.43;;;5.40;99.90;;;;;;5019770;28;20548;-83
2021/04/09 04:32:17;;;;;;;19.85;12.15;;;5.40;99.90;;;;;;5004528;28;20076;-83
2021/04/09 04:34:43;;;;;;;18.33;11.55;;;5.30;99.90;;;;;;5012038;28;20068;-83
2021/04/09 04:37:10;;;;;;;20.48;12.23;;;5.30;99.90;;;;;;5005159;28;20096;-83
2021/04/09 04:39:36;;;;;;;22.95;12.48;;;5.30;99.90;;;;;;5006539;28;20053;-83
2021/04/09 04:42:03;;;;;;;17.83;11.77;;;5.20;99.90;;;;;;5002432;28;20092;-83
2021/04/09 04:44:29;;;;;;;19.13;10.88;;;5.10;99.90;;;;;;5000353;28;20050;-83
2021/04/09 04:46:56;;;;;;;20.55;11.68;;;5.10;99.90;;;;;;5000488;28;20050;-83
2021/04/09 04:49:22;;;;;;;17.17;10.20;;;5.10;99.90;;;;;;4999689;28;20050;-83
2021/04/09 04:51:48;;;;;;;21.90;12.60;;;5.00;99.90;;;;;;4998584;28;20367;-82
2021/04/09 04:54:15;;;;;;;23.70;12.38;;;5.00;99.90;;;;;;5004429;28;20050;-82
2021/04/09 04:56:46;;;;;;;18.88;11.45;;;4.90;99.90;;;;;;5021272;28;20065;-83
2021/04/09 04:59:13;;;;;;;18.40;11.05;;;4.90;99.90;;;;;;5021401;28;20073;-83
2021/04/09 05:01:39;;;;;;;22.20;12.52;;;4.90;99.90;;;;;;5004194;28;20572;-84
2021/04/09 05:04:06;;;;;;;17.70;12.00;;;4.90;99.90;;;;;;4996284;28;20072;-83
2021/04/09 05:06:32;;;;;;;21.17;11.88;;;4.90;99.90;;;;;;5023775;28;20525;-83
2021/04/09 05:08:59;;;;;;;20.92;12.48;;;4.80;99.90;;;;;;5005695;28;20081;-83
2021/04/09 05:11:26;;;;;;;22.25;12.77;;;4.80;99.90;;;;;;4996102;28;20062;-84
2021/04/09 05:13:52;;;;;;;16.63;11.15;;;4.80;99.90;;;;;;5002085;28;20145;-84
2021/04/09 05:16:18;;;;;;;18.45;11.45;;;4.80;99.90;;;;;;5015531;28;20060;-84
2021/04/09 05:18:45;;;;;;;23.15;13.00;;;4.80;99.90;;;;;;4999519;28;20460;-84
2021/04/09 05:21:11;;;;;;;22.20;12.20;;;4.80;99.90;;;;;;5003559;28;20054;-84
2021/04/09 05:23:41;;;;;;;19.35;12.73;;;4.80;99.90;;;;;;5014309;28;20050;-84
2021/04/09 05:26:08;;;;;;;20.17;11.65;;;4.90;99.90;;;;;;5008779;28;20462;-84
2021/04/09 05:28:34;;;;;;;21.20;12.25;;;4.90;99.90;;;;;;5004707;28;20117;-84
2021/04/09 05:31:03;;;;;;;19.30;11.35;;;5.00;99.90;;;;;;5004005;28;20049;-84
2021/04/09 05:33:29;;;;;;;18.23;11.77;;;5.00;99.90;;;;;;5010989;28;20050;-84
2021/04/09 05:35:56;;;;;;;25.38;11.85;;;5.10;99.90;;;;;;5009967;28;20081;-84
2021/04/09 05:38:22;;;;;;;20.05;11.90;;;5.20;99.90;;;;;;4996306;28;20647;-84
2021/04/09 05:40:48;;;;;;;19.77;12.38;;;5.20;99.90;;;;;;5019736;28;20080;-85
2021/04/09 05:43:15;;;;;;;20.25;11.95;;;5.30;99.90;;;;;;4998097;28;20060;-85
2021/04/09 05:45:42;;;;;;;20.70;11.70;;;5.40;99.90;;;;;;5024978;28;20053;-85
2021/04/09 05:48:08;;;;;;;23.55;13.43;;;5.50;99.90;;;;;;5008944;28;20034;-85
2021/04/09 05:50:36;;;;;;;19.98;12.05;;;5.60;99.90;;;;;;5022086;28;20128;-85
2021/04/09 05:53:05;;;;;;;22.42;11.55;;;5.70;99.90;;;;;;5002708;28;20081;-84
2021/04/09 05:55:31;;;;;;;23.90;11.68;;;5.70;99.90;;;;;;5007743;28;20046;-85
2021/04/09 05:57:58;;;;;;;21.58;11.30;;;5.80;99.90;;;;;;5025991;28;20058;-85
2021/04/09 06:00:24;;;;;;;22.30;12.40;;;5.90;99.90;;;;;;5006625;28;20069;-85
2021/04/09 06:02:53;;;;;;;20.52;12.35;;;5.90;99.90;;;;;;5011818;28;20107;-85
2021/04/09 06:05:20;;;;;;;20.48;12.30;;;6.00;99.90;;;;;;5008586;28;20069;-85
2021/04/09 06:07:54;;;;;;;18.80;11.48;;;6.00;99.90;;;;;;5023972;28;20046;-83
2021/04/09 06:10:20;;;;;;;20.92;11.02;;;6.00;99.90;;;;;;5010682;28;20065;-84
2021/04/09 06:12:46;;;;;;;21.92;12.65;;;6.00;99.90;;;;;;5010307;28;20109;-85
2021/04/09 06:15:14;;;;;;;22.48;12.15;;;6.00;99.90;;;;;;5014470;28;20591;-85
2021/04/09 06:17:40;;;;;;;23.98;11.98;;;6.10;99.90;;;;;;5022193;28;20050;-85
2021/04/09 06:20:07;;;;;;;20.23;11.63;;;6.10;99.90;;;;;;4996737;28;20472;-85
2021/04/09 06:22:34;;;;;;;22.10;12.18;;;6.10;99.90;;;;;;5003773;28;20077;-85
2021/04/09 06:25:04;;;;;;;20.52;11.05;;;6.20;99.90;;;;;;5006322;28;20069;-85
2021/04/09 06:27:30;;;;;;;21.83;12.55;;;6.20;99.90;;;;;;5005593;28;20109;-85
2021/04/09 06:30:08;;;;;;;25.08;13.23;;;6.30;99.90;;;;;;5018730;28;20308;-85
2021/04/09 06:32:35;;;;;;;21.02;11.73;;;6.40;99.90;;;;;;5014660;28;20051;-85
2021/04/09 06:35:04;;;;;;;22.35;11.75;;;6.50;99.90;;;;;;5006465;28;20080;-85
2021/04/09 06:37:30;;;;;;;21.38;11.88;;;6.60;99.90;;;;;;4994851;28;20104;-85
2021/04/09 06:39:57;;;;;;;22.63;10.65;;;6.70;99.90;;;;;;5002602;28;20132;-85
2021/04/09 06:42:24;;;;;;;21.27;11.57;;;6.80;99.90;;;;;;5019699;28;20088;-85
2021/04/09 06:44:51;;;;;;;25.48;13.43;;;6.90;99.90;;;;;;5022991;28;20057;-85
2021/04/09 06:47:19;;;;;;;20.58;11.80;;;6.90;99.90;;;;;;5007908;28;20532;-85
2021/04/09 06:49:46;;;;;;;20.63;12.00;;;7.00;99.90;;;;;;5008216;28;20079;-85
2021/04/09 06:52:13;;;;;;;20.48;11.63;;;7.20;99.90;;;;;;5024501;28;20076;-85
2021/04/09 06:54:43;;;;;;;18.70;10.98;;;7.40;99.90;;;;;;5009595;28;20049;-85
2021/04/09 06:57:11;;;;;;;19.50;11.02;;;7.60;99.90;;;;;;5001539;28;20517;-85
2021/04/09 06:59:44;;;;;;;22.73;12.15;;;7.70;99.90;;;;;;4987681;28;20058;-85
2021/04/09 07:02:13;;;;;;;21.55;10.90;;;7.80;99.90;;;;;;4997565;28;20040;-85
2021/04/09 07:04:41;;;;;;;18.20;11.07;;;8.10;99.90;;;;;;4995496;28;20128;-85
2021/04/09 07:07:13;;;;;;;18.48;9.90;;;8.20;99.90;;;;;;5026537;28;20100;-85
2021/04/09 07:09:40;;;;;;;21.58;12.15;;;8.40;99.90;;;;;;5022843;28;20068;-85
2021/04/09 07:12:07;;;;;;;29.40;11.38;;;8.50;99.90;;;;;;4999947;28;20057;-85
2021/04/09 07:14:47;;;;;;;16.90;10.40;;;8.50;99.90;;;;;;5005200;28;20081;-85
2021/04/09 07:17:31;;;;;;;19.85;10.98;;;8.50;99.90;;;;;;5001798;28;20081;-85
2021/04/09 07:20:15;;;;;;;20.23;12.02;;;8.50;99.90;;;;;;5024354;28;20046;-85
2021/04/09 07:22:48;;;;;;;20.98;11.57;;;8.50;99.90;;;;;;5010622;28;20050;-85
2021/04/09 07:25:33;;;;;;;20.65;10.77;;;8.40;99.90;;;;;;5004293;28;20058;-85
2021/04/09 07:28:20;;;;;;;24.20;11.05;;;8.50;99.90;;;;;;5008599;28;20054;-85
2021/04/09 07:30:51;;;;;;;16.83;10.18;;;8.70;99.90;;;;;;5000554;28;20060;-85
2021/04/09 07:33:19;;;;;;;19.27;10.27;;;8.80;99.90;;;;;;5004998;28;20374;-85
2021/04/09 07:36:00;;;;;;;16.35;9.45;;;8.90;99.90;;;;;;5003761;28;20053;-85
2021/04/09 07:38:36;;;;;;;17.17;9.13;;;9.00;99.90;;;;;;5018512;28;20233;-85
2021/04/09 07:41:08;;;;;;;17.38;9.85;;;9.10;99.90;;;;;;5004776;28;20481;-86
2021/04/09 07:43:39;;;;;;;15.70;9.10;;;9.20;99.90;;;;;;5019887;28;20049;-85
2021/04/09 07:46:08;;;;;;;16.38;9.82;;;9.40;99.90;;;;;;5007176;28;20054;-85
2021/04/09 07:48:36;;;;;;;16.55;8.93;;;9.60;99.90;;;;;;5022366;28;20054;-85
2021/04/09 07:51:06;;;;;;;16.95;8.75;;;9.70;99.90;;;;;;5028093;28;20061;-85
2021/04/09 07:53:32;;;;;;;17.65;7.90;;;9.80;99.90;;;;;;5008138;28;20552;-86
2021/04/09 07:56:10;;;;;;;15.65;8.25;;;10.00;99.90;;;;;;5026829;28;20069;-85
2021/04/09 07:58:39;;;;;;;16.38;7.97;;;10.10;99.90;;;;;;5024448;28;20050;-85
2021/04/09 08:01:18;;;;;;;13.73;7.18;;;10.20;99.90;;;;;;5028420;28;20118;-84
2021/04/09 08:03:44;;;;;;;19.45;8.43;;;10.20;99.90;;;;;;5023680;28;20475;-84
2021/04/09 08:06:14;;;;;;;15.48;6.85;;;10.20;99.90;;;;;;5018248;28;20080;-85
2021/04/09 08:08:57;;;;;;;13.13;7.32;;;10.10;99.90;;;;;;5011153;28;20050;-85
2021/04/09 08:11:36;;;;;;;17.15;7.55;;;10.00;99.90;;;;;;5011779;28;20084;-85
2021/04/09 08:14:10;;;;;;;15.68;7.60;;;10.00;99.90;;;;;;5008865;28;20042;-86
2021/04/09 08:16:50;;;;;;;18.25;7.90;;;10.10;99.90;;;;;;5025904;28;20232;-84
2021/04/09 08:19:23;;;;;;;13.25;7.30;;;10.20;99.90;;;;;;5007964;28;20076;-84
2021/04/09 08:21:53;;;;;;;16.00;7.10;;;10.30;99.90;;;;;;5012728;28;20054;-85
2021/04/09 08:24:21;;;;;;;11.50;7.18;;;10.40;99.90;;;;;;5005433;28;20093;-84
2021/04/09 08:26:49;;;;;;;16.40;7.00;;;10.60;99.90;;;;;;5024796;28;20137;-84
2021/04/09 08:29:16;;;;;;;11.18;6.57;;;10.70;99.90;;;;;;5009541;28;20049;-84
2021/04/09 08:31:43;;;;;;;17.15;7.38;;;10.70;99.90;;;;;;5023496;28;20048;-84
2021/04/09 08:34:11;;;;;;;14.40;7.18;;;10.80;99.90;;;;;;5012848;28;20077;-84
2021/04/09 08:36:39;;;;;;;16.30;7.57;;;10.70;99.90;;;;;;5023576;28;20445;-84
2021/04/09 08:39:09;;;;;;;21.10;8.68;;;10.70;99.90;;;;;;5006513;28;20077;-85
2021/04/09 08:41:39;;;;;;;20.13;7.18;;;10.60;99.90;;;;;;4999285;28;20056;-85
2021/04/09 08:44:06;;;;;;;12.95;6.78;;;10.60;99.90;;;;;;5008765;28;20113;-85
2021/04/09 08:46:36;;;;;;;14.13;7.03;;;10.80;99.90;;;;;;5023192;28;20057;-85
2021/04/09 08:49:04;;;;;;;10.50;6.57;;;10.80;99.90;;;;;;5004202;28;20054;-84
2021/04/09 08:51:32;;;;;;;9.82;6.88;;;10.80;99.90;;;;;;5000523;28;20606;-85
2021/04/09 08:54:28;;;;;;;14.43;6.65;;;10.90;99.90;;;;;;5019701;28;20120;-85
2021/04/09 08:56:55;;;;;;;10.45;6.35;;;11.00;99.90;;;;;;4997615;28;20045;-85
2021/04/09 08:59:41;;;;;;;13.30;6.50;;;11.10;99.90;;;;;;5021611;28;20137;-85
2021/04/09 09:02:14;;;;;;;11.80;6.15;;;11.10;99.90;;;;;;5006696;28;20073;-84
2021/04/09 09:04:56;;;;;;;15.02;5.07;;;11.10;99.90;;;;;;5002457;28;20501;-85
2021/04/09 09:07:57;;;;;;;12.38;5.72;;;11.20;99.90;;;;;;5008888;28;20033;-85
2021/04/09 09:10:30;;;;;;;12.77;6.22;;;11.20;99.90;;;;;;5000168;28;20137;-86
2021/04/09 09:13:20;;;;;;;12.07;5.80;;;11.20;99.90;;;;;;5024881;28;20129;-86
2021/04/09 09:15:54;;;;;;;13.63;5.65;;;11.10;99.90;;;;;;5005384;28;20054;-85
2021/04/09 09:18:23;;;;;;;15.02;5.53;;;11.10;99.90;;;;;;5015930;28;20053;-85
2021/04/09 09:21:05;;;;;;;11.82;5.75;;;11.10;99.90;;;;;;5023909;28;20057;-85
2021/04/09 09:23:52;;;;;;;12.45;5.05;;;11.10;99.90;;;;;;5006160;28;20049;-85
2021/04/09 09:26:30;;;;;;;11.13;4.95;;;11.10;99.90;;;;;;4997890;28;20476;-85
2021/04/09 09:29:14;;;;;;;13.43;5.80;;;11.10;99.90;;;;;;5000584;28;20046;-85
2021/04/09 09:31:48;;;;;;;10.48;4.95;;;11.00;99.90;;;;;;5025526;28;20045;-85
2021/04/09 09:34:20;;;;;;;11.65;3.67;;;11.00;99.90;;;;;;5010466;28;20042;-85
2021/04/09 09:37:10;;;;;;;10.80;3.90;;;11.00;99.90;;;;;;5024664;28;20158;-85
2021/04/09 09:39:49;;;;;;;9.02;3.63;;;11.10;99.90;;;;;;5006385;28;20051;-85
2021/04/09 09:42:25;;;;;;;9.45;3.70;;;11.20;99.90;;;;;;5018738;28;20053;-83
2021/04/09 09:44:59;;;;;;;12.32;2.95;;;11.30;99.90;;;;;;5029880;28;20077;-85
2021/04/09 09:47:27;;;;;;;8.77;3.33;;;11.40;99.90;;;;;;5008370;28;20493;-85
2021/04/09 09:50:12;;;;;;;7.63;2.45;;;11.50;99.90;;;;;;5012054;28;20046;-85
2021/04/09 09:52:44;;;;;;;;;;;11.60;99.90;;;;;;5029248;28;20058;-85
2021/04/09 09:55:12;;;;;;;9.10;2.17;;;11.70;99.90;;;;;;5025835;28;20482;-85
2021/04/09 09:57:51;;;;;;;6.60;2.33;;;11.80;99.90;;;;;;5025858;28;20061;-86
2021/04/09 10:00:40;;;;;;;6.88;2.75;;;12.00;99.90;;;;;;5003521;28;20049;-85
2021/04/09 10:03:11;;;;;;;10.05;2.25;;;12.40;99.90;;;;;;5008278;28;20104;-85
2021/04/09 10:05:39;;;;;;;8.02;2.20;;;12.70;99.90;;;;;;5005909;28;20058;-85
2021/04/09 10:08:06;;;;;;;15.02;2.22;;;12.80;99.90;;;;;;5021604;28;20164;-86
2021/04/09 10:10:53;;;;;;;12.07;3.13;;;12.80;99.90;;;;;;5010782;28;20065;-85
2021/04/09 10:13:29;;;;;;;13.13;2.65;;;12.80;99.90;;;;;;5021230;28;20053;-86
2021/04/09 10:16:09;;;;;;;10.40;3.63;;;12.70;99.90;;;;;;4999790;28;20073;-85
2021/04/09 10:18:56;;;;;;;5.10;2.25;;;12.40;99.90;;;;;;5005252;28;20058;-85
2021/04/09 10:21:25;;;;;;;11.60;2.55;;;12.30;99.90;;;;;;5011725;28;20081;-85
2021/04/09 10:24:36;;;;;;;7.63;2.20;;;12.30;99.90;;;;;;5008411;28;20057;-85
2021/04/09 10:27:06;;;;;;;8.73;2.35;;;12.30;99.90;;;;;;4928420;28;20055;-85
2021/04/09 10:29:35;;;;;;;7.25;2.42;;;12.30;99.90;;;;;;4931126;28;20083;-85
2021/04/09 10:32:07;;;;;;;7.75;2.00;;;12.20;99.90;;;;;;4971475;28;20056;-85
2021/04/09 10:34:34;;;;;;;8.55;2.00;;;12.20;99.90;;;;;;5007530;28;20053;-85
2021/04/09 10:37:06;;;;;;;9.63;2.22;;;12.20;99.90;;;;;;5004681;28;20058;-86
2021/04/09 10:39:33;;;;;;;11.27;3.17;;;12.10;99.90;;;;;;5021921;28;20061;-85
2021/04/09 10:42:03;;;;;;;12.60;2.95;;;11.90;99.90;;;;;;5024193;28;20081;-85
2021/04/09 10:44:31;;;;;;;6.80;2.63;;;11.70;99.90;;;;;;5014915;28;20049;-84
2021/04/09 10:47:04;;;;;;;13.55;3.50;;;11.50;99.90;;;;;;5020345;28;20108;-85
2021/04/09 10:49:32;;;;;;;5.72;2.65;;;11.40;99.90;;;;;;5007409;28;20086;-84
2021/04/09 10:52:04;;;;;;;7.43;2.33;;;11.40;99.90;;;;;;5008333;28;20481;-86
2021/04/09 10:54:33;;;;;;;11.43;2.67;;;11.40;99.90;;;;;;5023065;28;20061;-85
2021/04/09 10:57:04;;;;;;;13.38;3.47;;;11.50;99.90;;;;;;5025024;28;20042;-85
2021/04/09 10:59:34;;;;;;;16.55;3.38;;;11.70;99.90;;;;;;5006472;28;20053;-85
2021/04/09 11:02:02;;;;;;;9.02;3.15;;;11.90;99.90;;;;;;5008646;28;20050;-84
2021/04/09 11:04:31;;;;;;;5.72;2.83;;;12.20;99.90;;;;;;5014313;28;20046;-85
2021/04/09 11:07:05;;;;;;;7.85;2.38;;;12.30;99.90;;;;;;5025526;28;20049;-85
2021/04/09 11:09:37;;;;;;;13.75;3.78;;;12.50;99.90;;;;;;5002109;28;20114;-87
2021/04/09 11:12:26;;;;;;;4.97;2.20;;;12.70;99.90;;;;;;5016095;28;20103;-86
2021/04/09 11:15:16;;;;;;;12.45;3.10;;;13.00;99.90;;;;;;5006627;28;20038;-86
2021/04/09 11:17:58;;;;;;;7.78;2.97;;;13.60;99.90;;;;;;5006657;28;20040;-86
2021/04/09 11:20:30;;;;;;;9.73;2.60;;;13.90;99.90;;;;;;5012156;28;20053;-86
2021/04/09 11:23:07;;;;;;;20.60;3.10;;;14.20;99.90;;;;;;5034961;28;20058;-85
2021/04/09 11:25:41;;;;;;;12.30;2.95;;;14.50;97.70;;;;;;5020322;28;20045;-86
2021/04/09 11:28:24;;;;;;;10.98;3.15;;;14.70;98.10;;;;;;5018914;28;20042;-85
2021/04/09 11:31:01;;;;;;;12.45;3.13;;;14.90;95.50;;;;;;5017957;28;20041;-84
2021/04/09 11:33:34;;;;;;;5.90;2.53;;;14.90;94.00;;;;;;5036465;28;20050;-84
2021/04/09 11:36:20;;;;;;;6.40;2.17;;;15.10;95.10;;;;;;5030733;28;20037;-84
2021/04/09 11:39:09;;;;;;;9.63;2.80;;;15.40;92.30;;;;;;5021227;28;20049;-87
2021/04/09 11:41:37;;;;;;;8.95;2.88;;;15.40;91.40;;;;;;5037646;28;20060;-84
2021/04/09 11:44:38;;;;;;;9.07;3.00;;;15.50;91.50;;;;;;5016622;28;20072;-84
2021/04/09 11:47:23;;;;;;;8.57;2.60;;;15.70;91.50;;;;;;4973376;28;20042;-83
2021/04/09 11:50:03;;;;;;;7.88;2.08;;;15.90;90.60;;;;;;5023573;28;20065;-84
2021/04/09 11:52:29;;;;;;;14.27;3.50;;;16.00;86.40;;;;;;5005280;28;20449;-83
2021/04/09 11:54:55;;;;;;;9.85;2.28;;;16.10;87.10;;;;;;5015695;28;20114;-85
2021/04/09 11:57:27;;;;;;;6.68;2.35;;;16.00;85.80;;;;;;5014911;28;20057;-83
2021/04/09 11:59:54;;;;;;;7.78;2.03;;;16.00;83.50;;;;;;5008174;28;20046;-82
2021/04/09 12:02:24;;;;;;;4.03;2.38;;;16.00;85.50;;;;;;5005242;28;20050;-82
2021/04/09 12:04:50;;;;;;;11.93;2.70;;;16.20;85.60;;;;;;5007213;28;20089;-82
2021/04/09 12:07:26;;;;;;;9.02;2.70;;;16.30;82.80;;;;;;5023170;28;21545;-81
2021/04/09 12:09:55;;;;;;;10.88;3.15;;;16.60;83.40;;;;;;5025095;28;20493;-81
2021/04/09 12:12:23;;;;;;;11.82;2.83;;;16.90;80.60;;;;;;5022668;28;20042;-81
2021/04/09 12:14:54;;;;;;;8.32;2.42;;;17.10;79.50;;;;;;5023742;28;20050;-81
2021/04/09 12:17:22;;;;;;;8.45;2.70;;;17.20;78.20;;;;;;5008929;28;20053;-81
2021/04/09 12:19:50;;;;;;;10.55;3.78;;;17.30;77.30;;;;;;5023240;28;20386;-81
2021/04/09 12:22:17;;;;;;;6.35;2.88;;;17.20;75.80;;;;;;5021576;28;20141;-81
2021/04/09 12:24:44;;;;;;;6.97;2.40;;;17.20;75.80;;;;;;5021377;28;20049;-81
2021/04/09 12:27:11;;;;;;;6.15;2.53;;;17.00;74.90;;;;;;5007262;28;20458;-81
2021/04/09 12:29:38;;;;;;;7.13;2.63;;;16.70;74.30;;;;;;5004069;28;20392;-82
2021/04/09 12:32:06;;;;;;;7.57;2.35;;;16.30;76.30;;;;;;5020760;28;20126;-80
2021/04/09 12:34:32;;;;;;;6.93;2.13;;;16.00;76.90;;;;;;5023590;28;20050;-80
2021/04/09 12:36:59;;;;;;;5.82;2.65;;;15.80;77.80;;;;;;5006467;28;20490;-81
2021/04/09 12:39:26;;;;;;;8.25;1.88;;;15.50;79.20;;;;;;5003869;28;20133;-82
2021/04/09 12:41:55;;;;;;;10.80;2.47;;;15.20;80.10;;;;;;5006015;28;20047;-82
2021/04/09 12:44:23;;;;;;;9.50;2.85;;;15.00;81.80;;;;;;5004068;28;20050;-82
2021/04/09 12:46:50;;;;;;;6.32;2.30;;;15.00;83.30;;;;;;5005928;28;20054;-81
2021/04/09 12:49:19;;;;;;;7.43;2.30;;;15.00;83.30;;;;;;5004878;28;20054;-82
2021/04/09 12:51:46;;;;;;;8.52;2.55;;;14.90;83.70;;;;;;5001757;28;20061;-82
2021/04/09 12:54:14;;;;;;;6.80;2.58;;;15.00;82.80;;;;;;5004990;28;20050;-83
2021/04/09 12:56:40;;;;;;;6.75;2.95;;;15.00;84.10;;;;;;5007397;28;20456;-81